sensor_id;sensor_type;location;lat;lon;timestamp;temperature;humidity
13596;DHT22;6868;52.544;13.416;2022-07-19T00:01:53;21.10;99.90
13596;DHT22;6868;52.544;13.416;2022-07-19T00:04:20;21.10;99.90
13596;DHT22;6868;52.544;13.416;2022-07-19T00:06:46;21.00;99.90
13596;DHT22;6868;52.544;13.416;2022-07-19T00:09:14;21.00;99.90
13596;DHT22;6868;52.544;13.416;2022-07-19T00:11:41;21.00;99.90
13596;DHT22;6868;52.544;13.416;2022-07-19T00:14:08;21.00;99.90
13596;DHT22;6868;52.544;13.416;2022-07-19T00:16:35;21.00;99.90
13596;DHT22;6868;52.544;13.416;2022-07-19T00:19:03;20.90;99.90
13596;DHT22;6868;52.544;13.416;2022-07-19T00:21:30;20.90;99.90
13596;DHT22;6868;52.544;13.416;2022-07-19T00:23:57;20.90;99.90
13596;DHT22;6868;52.544;13.416;2022-07-19T00:26:25;20.80;99.90
13596;DHT22;6868;52.544;13.416;2022-07-19T00:28:52;20.80;99.90
13596;DHT22;6868;52.544;13.416;2022-07-19T00:31:20;20.80;99.90
13596;DHT22;6868;52.544;13.416;2022-07-19T00:33:47;20.70;99.90
13596;DHT22;6868;52.544;13.416;2022-07-19T00:36:15;20.70;99.90
13596;DHT22;6868;52.544;13.416;2022-07-19T00:38:42;20.70;99.90
13596;DHT22;6868;52.544;13.416;2022-07-19T00:41:09;20.70;99.90
13596;DHT22;6868;52.544;13.416;2022-07-19T00:43:39;20.60;99.90
13596;DHT22;6868;52.544;13.416;2022-07-19T00:46:11;20.60;99.90
13596;DHT22;6868;52.544;13.416;2022-07-19T00:48:38;20.60;99.90
13596;DHT22;6868;52.544;13.416;2022-07-19T00:51:06;20.50;99.90
13596;DHT22;6868;52.544;13.416;2022-07-19T00:53:34;20.50;99.90
13596;DHT22;6868;52.544;13.416;2022-07-19T00:56:08;20.50;99.90
13596;DHT22;6868;52.544;13.416;2022-07-19T00:58:37;20.50;99.90
13596;DHT22;6868;52.544;13.416;2022-07-19T01:01:05;20.50;99.90
13596;DHT22;6868;52.544;13.416;2022-07-19T01:03:33;20.40;99.90
13596;DHT22;6868;52.544;13.416;2022-07-19T01:06:01;20.40;99.90
13596;DHT22;6868;52.544;13.416;2022-07-19T01:08:27;20.40;99.90
13596;DHT22;6868;52.544;13.416;2022-07-19T01:10:56;20.40;99.90
13596;DHT22;6868;52.544;13.416;2022-07-19T01:13:23;20.30;99.90
13596;DHT22;6868;52.544;13.416;2022-07-19T01:15:50;20.40;99.90
13596;DHT22;6868;52.544;13.416;2022-07-19T01:18:16;20.30;99.90
13596;DHT22;6868;52.544;13.416;2022-07-19T01:20:43;20.30;99.90
13596;DHT22;6868;52.544;13.416;2022-07-19T01:23:11;20.30;99.90
13596;DHT22;6868;52.544;13.416;2022-07-19T01:25:38;20.30;99.90
13596;DHT22;6868;52.544;13.416;2022-07-19T01:28:06;20.30;99.90
13596;DHT22;6868;52.544;13.416;2022-07-19T01:30:33;20.30;99.90
13596;DHT22;6868;52.544;13.416;2022-07-19T01:33:00;20.30;99.90
13596;DHT22;6868;52.544;13.416;2022-07-19T01:35:27;20.30;99.90
13596;DHT22;6868;52.544;13.416;2022-07-19T01:37:55;20.30;99.90
13596;DHT22;6868;52.544;13.416;2022-07-19T01:40:24;20.20;99.90
13596;DHT22;6868;52.544;13.416;2022-07-19T01:42:51;20.20;99.90
13596;DHT22;6868;52.544;13.416;2022-07-19T01:45:18;20.20;99.90
13596;DHT22;6868;52.544;13.416;2022-07-19T01:47:45;20.20;99.90
13596;DHT22;6868;52.544;13.416;2022-07-19T01:50:13;20.20;99.90
13596;DHT22;6868;52.544;13.416;2022-07-19T01:52:40;20.10;99.90
13596;DHT22;6868;52.544;13.416;2022-07-19T01:55:07;20.10;99.90
13596;DHT22;6868;52.544;13.416;2022-07-19T01:57:35;20.10;99.90
13596;DHT22;6868;52.544;13.416;2022-07-19T02:00:02;20.10;99.90
13596;DHT22;6868;52.544;13.416;2022-07-19T02:02:30;20.10;99.90
13596;DHT22;6868;52.544;13.416;2022-07-19T02:04:57;20.10;99.90
13596;DHT22;6868;52.544;13.416;2022-07-19T02:07:24;20.00;99.90
13596;DHT22;6868;52.544;13.416;2022-07-19T02:09:51;20.00;99.90
13596;DHT22;6868;52.544;13.416;2022-07-19T02:12:18;20.00;99.90
13596;DHT22;6868;52.544;13.416;2022-07-19T02:14:46;20.00;99.90
13596;DHT22;6868;52.544;13.416;2022-07-19T02:17:13;19.90;99.90
13596;DHT22;6868;52.544;13.416;2022-07-19T02:19:40;19.90;99.90
13596;DHT22;6868;52.544;13.416;2022-07-19T02:24:33;19.90;99.90
13596;DHT22;6868;52.544;13.416;2022-07-19T02:27:00;19.90;99.90
13596;DHT22;6868;52.544;13.416;2022-07-19T02:29:27;19.90;99.90
13596;DHT22;6868;52.544;13.416;2022-07-19T02:31:55;19.80;99.90
13596;DHT22;6868;52.544;13.416;2022-07-19T02:34:22;19.80;99.90
13596;DHT22;6868;52.544;13.416;2022-07-19T02:36:48;19.80;99.90
13596;DHT22;6868;52.544;13.416;2022-07-19T02:39:15;19.80;99.90
13596;DHT22;6868;52.544;13.416;2022-07-19T02:41:42;19.80;99.90
13596;DHT22;6868;52.544;13.416;2022-07-19T02:44:09;19.80;99.90
13596;DHT22;6868;52.544;13.416;2022-07-19T02:46:36;19.80;99.90
13596;DHT22;6868;52.544;13.416;2022-07-19T02:49:04;19.70;99.90
13596;DHT22;6868;52.544;13.416;2022-07-19T02:51:30;19.60;99.90
13596;DHT22;6868;52.544;13.416;2022-07-19T02:53:57;19.60;99.90
13596;DHT22;6868;52.544;13.416;2022-07-19T02:56:24;19.60;99.90
13596;DHT22;6868;52.544;13.416;2022-07-19T02:58:51;19.60;99.90
13596;DHT22;6868;52.544;13.416;2022-07-19T03:01:18;19.60;99.90
13596;DHT22;6868;52.544;13.416;2022-07-19T03:03:45;19.60;99.90
13596;DHT22;6868;52.544;13.416;2022-07-19T03:06:15;19.60;99.90
13596;DHT22;6868;52.544;13.416;2022-07-19T03:08:43;19.50;99.90
13596;DHT22;6868;52.544;13.416;2022-07-19T03:11:10;19.50;99.90
13596;DHT22;6868;52.544;13.416;2022-07-19T03:13:37;19.50;99.90
13596;DHT22;6868;52.544;13.416;2022-07-19T03:16:04;19.50;99.90
13596;DHT22;6868;52.544;13.416;2022-07-19T03:18:33;19.50;99.90
13596;DHT22;6868;52.544;13.416;2022-07-19T03:21:00;19.50;99.90
13596;DHT22;6868;52.544;13.416;2022-07-19T03:23:30;19.50;99.90
13596;DHT22;6868;52.544;13.416;2022-07-19T03:25:59;19.50;99.90
13596;DHT22;6868;52.544;13.416;2022-07-19T03:28:26;19.50;99.90
13596;DHT22;6868;52.544;13.416;2022-07-19T03:30:53;19.50;99.90
13596;DHT22;6868;52.544;13.416;2022-07-19T03:33:23;19.50;99.90
13596;DHT22;6868;52.544;13.416;2022-07-19T03:35:49;19.50;99.90
13596;DHT22;6868;52.544;13.416;2022-07-19T03:38:16;19.50;99.90
13596;DHT22;6868;52.544;13.416;2022-07-19T03:40:45;19.60;99.90
13596;DHT22;6868;52.544;13.416;2022-07-19T03:43:12;19.60;99.90
13596;DHT22;6868;52.544;13.416;2022-07-19T03:45:39;19.60;99.90
13596;DHT22;6868;52.544;13.416;2022-07-19T03:48:06;19.70;99.90
13596;DHT22;6868;52.544;13.416;2022-07-19T03:50:33;19.70;99.90
13596;DHT22;6868;52.544;13.416;2022-07-19T03:52:59;19.70;99.90
13596;DHT22;6868;52.544;13.416;2022-07-19T03:55:26;19.70;99.90
13596;DHT22;6868;52.544;13.416;2022-07-19T03:57:54;19.70;99.90
13596;DHT22;6868;52.544;13.416;2022-07-19T04:00:21;19.70;99.90
13596;DHT22;6868;52.544;13.416;2022-07-19T04:02:48;19.80;99.90
13596;DHT22;6868;52.544;13.416;2022-07-19T04:05:15;19.80;99.90
13596;DHT22;6868;52.544;13.416;2022-07-19T04:07:43;19.90;99.90
13596;DHT22;6868;52.544;13.416;2022-07-19T04:10:10;20.00;99.90
13596;DHT22;6868;52.544;13.416;2022-07-19T04:12:37;20.00;99.90
13596;DHT22;6868;52.544;13.416;2022-07-19T04:15:06;20.00;99.90
13596;DHT22;6868;52.544;13.416;2022-07-19T04:17:33;20.00;99.90
13596;DHT22;6868;52.544;13.416;2022-07-19T04:20:00;20.00;99.90
13596;DHT22;6868;52.544;13.416;2022-07-19T04:22:27;20.00;99.90
13596;DHT22;6868;52.544;13.416;2022-07-19T04:24:54;20.10;99.90
13596;DHT22;6868;52.544;13.416;2022-07-19T04:27:20;20.10;99.90
13596;DHT22;6868;52.544;13.416;2022-07-19T04:29:47;20.20;99.90
13596;DHT22;6868;52.544;13.416;2022-07-19T04:32:16;20.20;99.90
13596;DHT22;6868;52.544;13.416;2022-07-19T04:34:42;20.30;99.90
13596;DHT22;6868;52.544;13.416;2022-07-19T04:37:09;20.40;99.90
13596;DHT22;6868;52.544;13.416;2022-07-19T04:39:36;20.50;99.90
13596;DHT22;6868;52.544;13.416;2022-07-19T04:42:02;20.60;99.90
13596;DHT22;6868;52.544;13.416;2022-07-19T04:44:29;20.60;99.90
13596;DHT22;6868;52.544;13.416;2022-07-19T04:46:56;20.80;99.90
13596;DHT22;6868;52.544;13.416;2022-07-19T04:49:24;20.90;99.90
13596;DHT22;6868;52.544;13.416;2022-07-19T04:51:51;21.10;99.90
13596;DHT22;6868;52.544;13.416;2022-07-19T04:54:18;21.60;99.90
13596;DHT22;6868;52.544;13.416;2022-07-19T04:56:44;22.40;99.90
13596;DHT22;6868;52.544;13.416;2022-07-19T04:59:11;23.00;99.90
13596;DHT22;6868;52.544;13.416;2022-07-19T05:01:38;23.70;99.90
13596;DHT22;6868;52.544;13.416;2022-07-19T05:04:05;24.10;99.90
13596;DHT22;6868;52.544;13.416;2022-07-19T05:06:33;24.50;99.90
13596;DHT22;6868;52.544;13.416;2022-07-19T05:08:59;24.60;99.90
13596;DHT22;6868;52.544;13.416;2022-07-19T05:11:26;24.80;99.90
13596;DHT22;6868;52.544;13.416;2022-07-19T05:13:53;24.90;99.90
13596;DHT22;6868;52.544;13.416;2022-07-19T05:16:19;24.90;99.90
13596;DHT22;6868;52.544;13.416;2022-07-19T05:18:47;24.90;99.90
13596;DHT22;6868;52.544;13.416;2022-07-19T05:21:13;24.90;99.90
13596;DHT22;6868;52.544;13.416;2022-07-19T05:23:41;25.00;99.90
13596;DHT22;6868;52.544;13.416;2022-07-19T05:26:08;25.10;99.90
13596;DHT22;6868;52.544;13.416;2022-07-19T05:28:35;25.10;99.90
13596;DHT22;6868;52.544;13.416;2022-07-19T05:31:02;24.90;99.90
13596;DHT22;6868;52.544;13.416;2022-07-19T05:33:29;25.10;99.90
13596;DHT22;6868;52.544;13.416;2022-07-19T05:35:55;25.60;99.90
13596;DHT22;6868;52.544;13.416;2022-07-19T05:38:23;25.70;99.90
13596;DHT22;6868;52.544;13.416;2022-07-19T05:40:51;25.90;99.90
13596;DHT22;6868;52.544;13.416;2022-07-19T05:43:17;26.00;99.90
13596;DHT22;6868;52.544;13.416;2022-07-19T05:45:44;26.00;99.90
13596;DHT22;6868;52.544;13.416;2022-07-19T05:48:11;25.80;99.90
13596;DHT22;6868;52.544;13.416;2022-07-19T05:50:37;26.00;99.90
13596;DHT22;6868;52.544;13.416;2022-07-19T05:53:04;25.90;99.60
13596;DHT22;6868;52.544;13.416;2022-07-19T05:55:31;26.00;98.70
13596;DHT22;6868;52.544;13.416;2022-07-19T05:57:59;26.10;97.90
13596;DHT22;6868;52.544;13.416;2022-07-19T06:00:26;26.20;98.70
13596;DHT22;6868;52.544;13.416;2022-07-19T06:02:53;26.60;96.90
13596;DHT22;6868;52.544;13.416;2022-07-19T06:05:20;27.10;95.90
13596;DHT22;6868;52.544;13.416;2022-07-19T06:10:17;27.60;92.40
13596;DHT22;6868;52.544;13.416;2022-07-19T06:12:45;27.50;90.90
13596;DHT22;6868;52.544;13.416;2022-07-19T06:15:13;27.20;88.60
13596;DHT22;6868;52.544;13.416;2022-07-19T06:17:40;27.20;87.20
13596;DHT22;6868;52.544;13.416;2022-07-19T06:20:07;27.80;86.30
13596;DHT22;6868;52.544;13.416;2022-07-19T06:22:34;28.20;83.00
13596;DHT22;6868;52.544;13.416;2022-07-19T06:27:32;29.00;71.30
13596;DHT22;6868;52.544;13.416;2022-07-19T06:32:29;29.50;64.80
13596;DHT22;6868;52.544;13.416;2022-07-19T06:34:56;29.60;60.60
13596;DHT22;6868;52.544;13.416;2022-07-19T06:37:25;29.60;58.20
13596;DHT22;6868;52.544;13.416;2022-07-19T06:39:51;29.90;57.40
13596;DHT22;6868;52.544;13.416;2022-07-19T06:42:18;30.40;54.50
13596;DHT22;6868;52.544;13.416;2022-07-19T06:47:13;31.40;49.30
13596;DHT22;6868;52.544;13.416;2022-07-19T06:49:42;32.00;44.80
13596;DHT22;6868;52.544;13.416;2022-07-19T06:52:09;32.30;44.50
13596;DHT22;6868;52.544;13.416;2022-07-19T06:54:36;32.30;42.80
13596;DHT22;6868;52.544;13.416;2022-07-19T06:57:03;32.30;42.00
13596;DHT22;6868;52.544;13.416;2022-07-19T06:59:31;32.10;42.40
13596;DHT22;6868;52.544;13.416;2022-07-19T21:34:47;34.00;16.10
13596;DHT22;6868;52.544;13.416;2022-07-19T21:37:14;26.70;39.60
13596;DHT22;6868;52.544;13.416;2022-07-19T21:42:10;26.60;40.30
13596;DHT22;6868;52.544;13.416;2022-07-19T21:44:37;26.60;40.40
13596;DHT22;6868;52.544;13.416;2022-07-19T21:47:04;26.60;40.60
13596;DHT22;6868;52.544;13.416;2022-07-19T21:49:31;26.60;40.90
13596;DHT22;6868;52.544;13.416;2022-07-19T21:51:59;26.50;41.30
13596;DHT22;6868;52.544;13.416;2022-07-19T21:54:26;26.50;41.60
13596;DHT22;6868;52.544;13.416;2022-07-19T21:56:53;26.60;42.00
13596;DHT22;6868;52.544;13.416;2022-07-19T21:59:20;26.50;42.30
13596;DHT22;6868;52.544;13.416;2022-07-19T22:01:47;26.50;42.70
13596;DHT22;6868;52.544;13.416;2022-07-19T22:04:14;26.50;43.20
13596;DHT22;6868;52.544;13.416;2022-07-19T22:06:40;26.40;43.70
13596;DHT22;6868;52.544;13.416;2022-07-19T22:09:11;26.40;44.10
13596;DHT22;6868;52.544;13.416;2022-07-19T22:11:38;26.40;44.60
13596;DHT22;6868;52.544;13.416;2022-07-19T22:14:05;26.40;45.20
13596;DHT22;6868;52.544;13.416;2022-07-19T22:16:32;26.40;45.70
13596;DHT22;6868;52.544;13.416;2022-07-19T22:18:59;26.40;46.30
13596;DHT22;6868;52.544;13.416;2022-07-19T22:21:26;26.30;46.90
13596;DHT22;6868;52.544;13.416;2022-07-19T22:23:52;26.30;47.50
13596;DHT22;6868;52.544;13.416;2022-07-19T22:26:21;26.30;48.10
13596;DHT22;6868;52.544;13.416;2022-07-19T22:28:55;26.30;48.70
13596;DHT22;6868;52.544;13.416;2022-07-19T22:31:22;26.20;49.50
13596;DHT22;6868;52.544;13.416;2022-07-19T22:33:49;26.20;50.20
13596;DHT22;6868;52.544;13.416;2022-07-19T22:36:16;26.10;51.10
13596;DHT22;6868;52.544;13.416;2022-07-19T22:38:42;26.10;51.70
13596;DHT22;6868;52.544;13.416;2022-07-19T22:41:09;26.10;52.20
13596;DHT22;6868;52.544;13.416;2022-07-19T22:43:37;26.10;53.10
13596;DHT22;6868;52.544;13.416;2022-07-19T22:46:04;26.10;53.70
13596;DHT22;6868;52.544;13.416;2022-07-19T22:48:31;26.10;54.30
13596;DHT22;6868;52.544;13.416;2022-07-19T22:50:57;26.10;54.90
13596;DHT22;6868;52.544;13.416;2022-07-19T22:53:24;26.10;55.60
13596;DHT22;6868;52.544;13.416;2022-07-19T22:55:51;26.00;56.10
13596;DHT22;6868;52.544;13.416;2022-07-19T22:58:18;26.10;56.80
13596;DHT22;6868;52.544;13.416;2022-07-19T23:00:46;26.10;57.10
13596;DHT22;6868;52.544;13.416;2022-07-19T23:03:13;26.00;57.90
13596;DHT22;6868;52.544;13.416;2022-07-19T23:05:40;26.00;58.50
13596;DHT22;6868;52.544;13.416;2022-07-19T23:08:07;26.00;58.90
13596;DHT22;6868;52.544;13.416;2022-07-19T23:10:34;26.00;59.30
13596;DHT22;6868;52.544;13.416;2022-07-19T23:13:01;26.00;59.90
13596;DHT22;6868;52.544;13.416;2022-07-19T23:15:28;26.00;60.50
13596;DHT22;6868;52.544;13.416;2022-07-19T23:17:56;26.00;61.10
13596;DHT22;6868;52.544;13.416;2022-07-19T23:20:23;26.00;61.80
13596;DHT22;6868;52.544;13.416;2022-07-19T23:22:49;26.00;62.70
13596;DHT22;6868;52.544;13.416;2022-07-19T23:25:16;25.90;63.50
13596;DHT22;6868;52.544;13.416;2022-07-19T23:27:43;25.80;64.80
13596;DHT22;6868;52.544;13.416;2022-07-19T23:30:12;25.80;65.40
13596;DHT22;6868;52.544;13.416;2022-07-19T23:32:39;25.80;66.20
13596;DHT22;6868;52.544;13.416;2022-07-19T23:35:08;25.80;67.20
13596;DHT22;6868;52.544;13.416;2022-07-19T23:37:37;25.80;68.10
13596;DHT22;6868;52.544;13.416;2022-07-19T23:40:04;25.70;69.30
13596;DHT22;6868;52.544;13.416;2022-07-19T23:42:31;25.70;70.20
13596;DHT22;6868;52.544;13.416;2022-07-19T23:44:58;25.60;71.40
13596;DHT22;6868;52.544;13.416;2022-07-19T23:47:25;25.60;72.90
13596;DHT22;6868;52.544;13.416;2022-07-19T23:49:52;25.50;73.90
13596;DHT22;6868;52.544;13.416;2022-07-19T23:52:20;25.50;75.50
13596;DHT22;6868;52.544;13.416;2022-07-19T23:54:46;25.40;77.20
13596;DHT22;6868;52.544;13.416;2022-07-19T23:57:16;25.40;78.80
13596;DHT22;6868;52.544;13.416;2022-07-19T23:59:43;25.30;80.90
